KSEP/SEP METAR and TAF weather

Enter ICAO airport designator
Station Type Date Time Source
KSEP METAR 2023/02/05 13:55 UTC NOAA

KSEP 051355Z AUTO 00000KT 1/4SM VV002 04/03 A3019 RMK AO2 T00350030


Station Type Date Time Source
KSEP Decoded METAR 2023/02/05 13:55 UTC NOAA

Stephenville, Clark Field Municipal Airport, TX, United States (KSEP) 32-13N 098-11W 402M
Feb 05, 2023 - 08:55 AM EST / 2023.02.05 1355 UTC
Wind: Calm:0
Visibility: 1/4 mile(s):0
Sky conditions: obscured
Temperature: 38.3 F (3.5 C)
Dew Point: 37.4 F (3.0 C)
Relative Humidity: 96%
Pressure (altimeter): 30.19 in. Hg (1022 hPa)
ob: KSEP 051355Z AUTO 00000KT 1/4SM VV002 04/03 A3019 RMK AO2 T00350030
cycle: 14

Station Type Date Time Source
KSEP TAF UTC NOAA

Error!

Example: see airport list